sensor_id;sensor_type;location;lat;lon;timestamp;P1;durP1;ratioP1;P2;durP2;ratioP2
21014;SDS011;19207;-23.482;-46.500;2023-02-02T00:02:40;88.25;;;45.85;;
21014;SDS011;19207;-23.482;-46.500;2023-02-02T00:05:26;108.65;;;61.55;;
21014;SDS011;19207;-23.482;-46.500;2023-02-02T00:08:14;108.70;;;63.53;;
21014;SDS011;19207;-23.482;-46.500;2023-02-02T00:11:01;35.28;;;22.05;;
21014;SDS011;19207;-23.482;-46.500;2023-02-02T00:13:47;11.73;;;7.12;;
21014;SDS011;19207;-23.482;-46.500;2023-02-02T00:16:35;9.05;;;3.30;;
21014;SDS011;19207;-23.482;-46.500;2023-02-02T00:19:23;10.50;;;3.35;;
21014;SDS011;19207;-23.482;-46.500;2023-02-02T00:22:14;5.22;;;2.65;;
21014;SDS011;19207;-23.482;-46.500;2023-02-02T00:25:01;5.70;;;2.65;;
21014;SDS011;19207;-23.482;-46.500;2023-02-02T00:27:47;8.20;;;4.00;;
21014;SDS011;19207;-23.482;-46.500;2023-02-02T00:30:34;8.52;;;3.42;;
21014;SDS011;19207;-23.482;-46.500;2023-02-02T00:33:21;8.05;;;3.60;;
21014;SDS011;19207;-23.482;-46.500;2023-02-02T00:36:07;6.25;;;3.05;;
21014;SDS011;19207;-23.482;-46.500;2023-02-02T00:38:54;7.87;;;2.70;;
21014;SDS011;19207;-23.482;-46.500;2023-02-02T00:41:41;6.07;;;3.33;;
21014;SDS011;19207;-23.482;-46.500;2023-02-02T00:44:28;3.10;;;2.70;;
21014;SDS011;19207;-23.482;-46.500;2023-02-02T00:47:32;4.93;;;2.90;;
21014;SDS011;19207;-23.482;-46.500;2023-02-02T00:50:19;4.18;;;2.90;;
21014;SDS011;19207;-23.482;-46.500;2023-02-02T00:53:06;5.75;;;3.28;;
21014;SDS011;19207;-23.482;-46.500;2023-02-02T00:55:52;5.45;;;3.45;;
21014;SDS011;19207;-23.482;-46.500;2023-02-02T00:58:39;6.55;;;3.70;;
21014;SDS011;19207;-23.482;-46.500;2023-02-02T01:01:26;10.07;;;4.43;;
21014;SDS011;19207;-23.482;-46.500;2023-02-02T01:04:13;10.23;;;4.95;;
21014;SDS011;19207;-23.482;-46.500;2023-02-02T01:07:00;7.35;;;4.65;;
21014;SDS011;19207;-23.482;-46.500;2023-02-02T01:09:47;18.40;;;8.65;;
21014;SDS011;19207;-23.482;-46.500;2023-02-02T01:12:33;27.13;;;12.18;;
21014;SDS011;19207;-23.482;-46.500;2023-02-02T01:15:20;37.70;;;17.17;;
21014;SDS011;19207;-23.482;-46.500;2023-02-02T01:18:07;90.45;;;33.95;;
21014;SDS011;19207;-23.482;-46.500;2023-02-02T01:20:59;63.08;;;25.98;;
21014;SDS011;19207;-23.482;-46.500;2023-02-02T01:23:47;47.85;;;22.02;;
21014;SDS011;19207;-23.482;-46.500;2023-02-02T01:26:33;44.88;;;20.85;;
21014;SDS011;19207;-23.482;-46.500;2023-02-02T01:29:20;45.08;;;20.52;;
21014;SDS011;19207;-23.482;-46.500;2023-02-02T01:32:07;41.28;;;19.40;;
21014;SDS011;19207;-23.482;-46.500;2023-02-02T01:34:54;39.88;;;20.02;;
21014;SDS011;19207;-23.482;-46.500;2023-02-02T01:37:41;36.97;;;19.60;;
21014;SDS011;19207;-23.482;-46.500;2023-02-02T01:40:27;33.92;;;17.25;;
21014;SDS011;19207;-23.482;-46.500;2023-02-02T01:46:20;29.12;;;14.80;;
21014;SDS011;19207;-23.482;-46.500;2023-02-02T01:49:10;38.22;;;16.50;;
21014;SDS011;19207;-23.482;-46.500;2023-02-02T01:51:58;49.22;;;21.52;;
21014;SDS011;19207;-23.482;-46.500;2023-02-02T01:54:47;95.55;;;32.17;;
21014;SDS011;19207;-23.482;-46.500;2023-02-02T01:57:39;129.45;;;48.15;;
21014;SDS011;19207;-23.482;-46.500;2023-02-02T02:00:26;174.23;;;70.80;;
21014;SDS011;19207;-23.482;-46.500;2023-02-02T02:03:17;217.00;;;92.03;;
21014;SDS011;19207;-23.482;-46.500;2023-02-02T02:08:53;162.30;;;88.12;;
21014;SDS011;19207;-23.482;-46.500;2023-02-02T02:11:40;123.78;;;73.32;;
21014;SDS011;19207;-23.482;-46.500;2023-02-02T02:14:27;96.00;;;57.72;;
21014;SDS011;19207;-23.482;-46.500;2023-02-02T02:17:48;83.72;;;53.58;;
21014;SDS011;19207;-23.482;-46.500;2023-02-02T02:33:01;122.30;;;74.18;;
21014;SDS011;19207;-23.482;-46.500;2023-02-02T02:38:40;111.62;;;67.32;;
21014;SDS011;19207;-23.482;-46.500;2023-02-02T02:41:31;109.50;;;58.08;;
21014;SDS011;19207;-23.482;-46.500;2023-02-02T02:44:18;108.75;;;59.17;;
21014;SDS011;19207;-23.482;-46.500;2023-02-02T02:47:06;146.70;;;64.05;;
21014;SDS011;19207;-23.482;-46.500;2023-02-02T02:49:53;135.73;;;59.30;;
21014;SDS011;19207;-23.482;-46.500;2023-02-02T02:52:40;127.97;;;56.63;;
21014;SDS011;19207;-23.482;-46.500;2023-02-02T02:55:27;103.28;;;50.42;;
21014;SDS011;19207;-23.482;-46.500;2023-02-02T02:58:20;117.82;;;57.17;;
21014;SDS011;19207;-23.482;-46.500;2023-02-02T03:04:39;77.68;;;34.20;;
21014;SDS011;19207;-23.482;-46.500;2023-02-02T03:08:13;66.65;;;26.58;;
21014;SDS011;19207;-23.482;-46.500;2023-02-02T03:10:40;53.65;;;19.12;;
21014;SDS011;19207;-23.482;-46.500;2023-02-02T03:13:28;58.63;;;19.98;;
21014;SDS011;19207;-23.482;-46.500;2023-02-02T03:16:16;63.67;;;21.17;;
21014;SDS011;19207;-23.482;-46.500;2023-02-02T03:19:04;67.28;;;23.00;;
21014;SDS011;19207;-23.482;-46.500;2023-02-02T03:21:51;54.15;;;20.37;;
21014;SDS011;19207;-23.482;-46.500;2023-02-02T03:24:38;49.38;;;17.10;;
21014;SDS011;19207;-23.482;-46.500;2023-02-02T03:27:25;46.80;;;14.87;;
21014;SDS011;19207;-23.482;-46.500;2023-02-02T03:30:12;46.72;;;17.02;;
21014;SDS011;19207;-23.482;-46.500;2023-02-02T03:32:59;33.65;;;12.50;;
21014;SDS011;19207;-23.482;-46.500;2023-02-02T03:35:46;38.90;;;14.43;;
21014;SDS011;19207;-23.482;-46.500;2023-02-02T03:38:32;43.40;;;16.73;;
21014;SDS011;19207;-23.482;-46.500;2023-02-02T03:41:20;47.88;;;17.83;;
21014;SDS011;19207;-23.482;-46.500;2023-02-02T03:44:06;59.13;;;21.23;;
21014;SDS011;19207;-23.482;-46.500;2023-02-02T03:46:53;64.22;;;22.50;;
21014;SDS011;19207;-23.482;-46.500;2023-02-02T03:49:39;98.85;;;42.92;;
21014;SDS011;19207;-23.482;-46.500;2023-02-02T03:52:26;78.03;;;31.15;;
21014;SDS011;19207;-23.482;-46.500;2023-02-02T03:55:13;111.25;;;54.78;;
21014;SDS011;19207;-23.482;-46.500;2023-02-02T03:58:00;130.73;;;77.85;;
21014;SDS011;19207;-23.482;-46.500;2023-02-02T04:00:46;134.48;;;78.05;;
21014;SDS011;19207;-23.482;-46.500;2023-02-02T04:03:33;36.92;;;20.37;;
21014;SDS011;19207;-23.482;-46.500;2023-02-02T04:06:21;29.15;;;17.05;;
21014;SDS011;19207;-23.482;-46.500;2023-02-02T04:09:08;31.75;;;20.20;;
21014;SDS011;19207;-23.482;-46.500;2023-02-02T04:11:55;20.23;;;11.98;;
21014;SDS011;19207;-23.482;-46.500;2023-02-02T04:14:42;22.33;;;11.73;;
21014;SDS011;19207;-23.482;-46.500;2023-02-02T04:17:29;11.10;;;6.72;;
21014;SDS011;19207;-23.482;-46.500;2023-02-02T04:20:15;11.32;;;7.53;;
21014;SDS011;19207;-23.482;-46.500;2023-02-02T04:23:02;31.30;;;20.52;;
21014;SDS011;19207;-23.482;-46.500;2023-02-02T04:25:50;33.40;;;19.45;;
21014;SDS011;19207;-23.482;-46.500;2023-02-02T04:28:36;23.38;;;14.75;;
21014;SDS011;19207;-23.482;-46.500;2023-02-02T04:31:23;24.90;;;15.18;;
21014;SDS011;19207;-23.482;-46.500;2023-02-02T04:34:11;61.65;;;35.65;;
21014;SDS011;19207;-23.482;-46.500;2023-02-02T04:36:58;78.53;;;35.20;;
21014;SDS011;19207;-23.482;-46.500;2023-02-02T04:39:45;62.13;;;29.27;;
21014;SDS011;19207;-23.482;-46.500;2023-02-02T04:42:31;53.40;;;22.13;;
21014;SDS011;19207;-23.482;-46.500;2023-02-02T04:45:19;48.92;;;20.00;;
21014;SDS011;19207;-23.482;-46.500;2023-02-02T04:48:05;36.67;;;15.88;;
21014;SDS011;19207;-23.482;-46.500;2023-02-02T04:51:03;32.90;;;16.40;;
21014;SDS011;19207;-23.482;-46.500;2023-02-02T04:53:49;42.22;;;18.40;;
21014;SDS011;19207;-23.482;-46.500;2023-02-02T04:56:37;40.42;;;16.10;;
21014;SDS011;19207;-23.482;-46.500;2023-02-02T04:59:26;41.55;;;18.17;;
21014;SDS011;19207;-23.482;-46.500;2023-02-02T05:02:13;33.20;;;14.50;;
21014;SDS011;19207;-23.482;-46.500;2023-02-02T05:05:00;34.85;;;14.45;;
21014;SDS011;19207;-23.482;-46.500;2023-02-02T05:07:46;35.00;;;13.65;;
21014;SDS011;19207;-23.482;-46.500;2023-02-02T05:10:33;36.17;;;13.77;;
21014;SDS011;19207;-23.482;-46.500;2023-02-02T05:13:20;37.08;;;12.02;;
21014;SDS011;19207;-23.482;-46.500;2023-02-02T05:16:07;35.95;;;13.13;;
21014;SDS011;19207;-23.482;-46.500;2023-02-02T05:18:54;34.00;;;11.95;;
21014;SDS011;19207;-23.482;-46.500;2023-02-02T05:21:42;39.75;;;11.32;;
21014;SDS011;19207;-23.482;-46.500;2023-02-02T05:24:29;52.92;;;17.70;;
21014;SDS011;19207;-23.482;-46.500;2023-02-02T05:27:16;45.35;;;16.92;;
21014;SDS011;19207;-23.482;-46.500;2023-02-02T05:30:03;48.15;;;18.23;;
21014;SDS011;19207;-23.482;-46.500;2023-02-02T05:32:50;38.65;;;15.77;;
21014;SDS011;19207;-23.482;-46.500;2023-02-02T05:35:36;35.80;;;14.25;;
21014;SDS011;19207;-23.482;-46.500;2023-02-02T05:38:23;39.40;;;17.12;;
21014;SDS011;19207;-23.482;-46.500;2023-02-02T05:41:09;52.30;;;17.98;;
21014;SDS011;19207;-23.482;-46.500;2023-02-02T05:43:59;53.22;;;18.40;;
21014;SDS011;19207;-23.482;-46.500;2023-02-02T05:46:46;40.42;;;16.83;;
21014;SDS011;19207;-23.482;-46.500;2023-02-02T05:49:32;33.33;;;13.50;;
21014;SDS011;19207;-23.482;-46.500;2023-02-02T05:52:20;35.35;;;14.43;;
21014;SDS011;19207;-23.482;-46.500;2023-02-02T05:55:07;62.85;;;18.58;;
21014;SDS011;19207;-23.482;-46.500;2023-02-02T05:57:55;78.10;;;23.85;;
21014;SDS011;19207;-23.482;-46.500;2023-02-02T06:00:42;63.35;;;21.75;;
21014;SDS011;19207;-23.482;-46.500;2023-02-02T06:03:28;55.10;;;18.90;;
21014;SDS011;19207;-23.482;-46.500;2023-02-02T06:06:15;45.63;;;17.90;;
21014;SDS011;19207;-23.482;-46.500;2023-02-02T06:09:02;56.92;;;18.70;;
21014;SDS011;19207;-23.482;-46.500;2023-02-02T06:11:49;47.78;;;18.50;;
21014;SDS011;19207;-23.482;-46.500;2023-02-02T06:14:36;53.40;;;18.90;;
21014;SDS011;19207;-23.482;-46.500;2023-02-02T06:17:23;73.30;;;23.12;;
21014;SDS011;19207;-23.482;-46.500;2023-02-02T06:20:10;118.37;;;44.92;;
21014;SDS011;19207;-23.482;-46.500;2023-02-02T06:22:57;162.55;;;56.35;;
21014;SDS011;19207;-23.482;-46.500;2023-02-02T06:25:43;135.82;;;32.92;;
21014;SDS011;19207;-23.482;-46.500;2023-02-02T06:28:30;98.87;;;29.02;;
21014;SDS011;19207;-23.482;-46.500;2023-02-02T06:31:17;97.05;;;32.10;;
21014;SDS011;19207;-23.482;-46.500;2023-02-02T06:34:04;101.32;;;33.50;;
21014;SDS011;19207;-23.482;-46.500;2023-02-02T06:36:50;84.45;;;24.65;;
21014;SDS011;19207;-23.482;-46.500;2023-02-02T06:39:37;74.20;;;24.00;;
21014;SDS011;19207;-23.482;-46.500;2023-02-02T06:42:23;89.05;;;33.70;;
21014;SDS011;19207;-23.482;-46.500;2023-02-02T06:45:11;108.95;;;40.53;;
21014;SDS011;19207;-23.482;-46.500;2023-02-02T06:47:58;90.07;;;39.33;;
21014;SDS011;19207;-23.482;-46.500;2023-02-02T06:50:47;75.55;;;32.33;;
21014;SDS011;19207;-23.482;-46.500;2023-02-02T06:53:33;116.28;;;48.28;;
21014;SDS011;19207;-23.482;-46.500;2023-02-02T06:56:20;108.20;;;40.55;;
21014;SDS011;19207;-23.482;-46.500;2023-02-02T06:59:07;99.90;;;35.95;;
21014;SDS011;19207;-23.482;-46.500;2023-02-02T07:01:53;68.40;;;23.83;;
21014;SDS011;19207;-23.482;-46.500;2023-02-02T07:04:40;66.10;;;22.50;;
21014;SDS011;19207;-23.482;-46.500;2023-02-02T07:07:30;46.28;;;16.02;;
21014;SDS011;19207;-23.482;-46.500;2023-02-02T07:10:17;46.00;;;16.08;;
21014;SDS011;19207;-23.482;-46.500;2023-02-02T07:13:04;39.00;;;17.42;;
21014;SDS011;19207;-23.482;-46.500;2023-02-02T07:15:51;84.72;;;31.65;;
21014;SDS011;19207;-23.482;-46.500;2023-02-02T07:18:39;79.90;;;30.98;;
21014;SDS011;19207;-23.482;-46.500;2023-02-02T07:21:27;93.07;;;34.05;;
21014;SDS011;19207;-23.482;-46.500;2023-02-02T07:24:19;89.15;;;32.75;;
21014;SDS011;19207;-23.482;-46.500;2023-02-02T07:27:06;78.10;;;30.75;;
21014;SDS011;19207;-23.482;-46.500;2023-02-02T07:29:52;85.72;;;30.67;;
21014;SDS011;19207;-23.482;-46.500;2023-02-02T07:32:39;80.10;;;29.30;;
21014;SDS011;19207;-23.482;-46.500;2023-02-02T07:35:25;72.53;;;29.60;;
21014;SDS011;19207;-23.482;-46.500;2023-02-02T07:38:12;86.65;;;29.75;;
21014;SDS011;19207;-23.482;-46.500;2023-02-02T07:41:01;75.93;;;31.08;;
21014;SDS011;19207;-23.482;-46.500;2023-02-02T07:43:48;78.65;;;28.02;;
21014;SDS011;19207;-23.482;-46.500;2023-02-02T07:46:35;71.30;;;26.25;;
21014;SDS011;19207;-23.482;-46.500;2023-02-02T07:49:22;72.97;;;28.27;;
21014;SDS011;19207;-23.482;-46.500;2023-02-02T07:52:09;89.07;;;37.47;;
21014;SDS011;19207;-23.482;-46.500;2023-02-02T07:54:55;104.95;;;52.80;;
21014;SDS011;19207;-23.482;-46.500;2023-02-02T07:57:42;102.30;;;54.38;;
21014;SDS011;19207;-23.482;-46.500;2023-02-02T08:00:30;160.20;;;97.65;;
21014;SDS011;19207;-23.482;-46.500;2023-02-02T08:03:17;131.00;;;85.07;;
21014;SDS011;19207;-23.482;-46.500;2023-02-02T08:06:23;106.22;;;56.17;;
21014;SDS011;19207;-23.482;-46.500;2023-02-02T08:09:10;112.22;;;64.25;;
21014;SDS011;19207;-23.482;-46.500;2023-02-02T08:11:56;82.60;;;39.38;;
21014;SDS011;19207;-23.482;-46.500;2023-02-02T08:14:46;91.82;;;45.38;;
21014;SDS011;19207;-23.482;-46.500;2023-02-02T08:17:33;81.78;;;29.92;;
21014;SDS011;19207;-23.482;-46.500;2023-02-02T08:20:20;67.20;;;27.42;;
21014;SDS011;19207;-23.482;-46.500;2023-02-02T08:23:06;48.40;;;21.60;;
21014;SDS011;19207;-23.482;-46.500;2023-02-02T08:26:05;51.28;;;23.23;;
21014;SDS011;19207;-23.482;-46.500;2023-02-02T08:28:52;54.00;;;23.62;;
21014;SDS011;19207;-23.482;-46.500;2023-02-02T08:31:39;46.88;;;22.08;;
21014;SDS011;19207;-23.482;-46.500;2023-02-02T08:34:26;50.85;;;22.02;;
21014;SDS011;19207;-23.482;-46.500;2023-02-02T08:37:12;50.20;;;21.92;;
21014;SDS011;19207;-23.482;-46.500;2023-02-02T08:39:59;49.97;;;17.83;;
21014;SDS011;19207;-23.482;-46.500;2023-02-02T08:42:46;64.20;;;24.27;;
21014;SDS011;19207;-23.482;-46.500;2023-02-02T08:45:35;56.47;;;22.45;;
21014;SDS011;19207;-23.482;-46.500;2023-02-02T08:48:21;48.47;;;19.15;;
21014;SDS011;19207;-23.482;-46.500;2023-02-02T08:51:11;44.33;;;18.60;;
21014;SDS011;19207;-23.482;-46.500;2023-02-02T08:53:59;44.42;;;18.15;;
21014;SDS011;19207;-23.482;-46.500;2023-02-02T08:56:45;66.15;;;24.87;;
21014;SDS011;19207;-23.482;-46.500;2023-02-02T08:59:32;73.85;;;27.60;;
21014;SDS011;19207;-23.482;-46.500;2023-02-02T09:02:19;72.00;;;29.48;;
21014;SDS011;19207;-23.482;-46.500;2023-02-02T09:05:05;74.12;;;28.92;;
21014;SDS011;19207;-23.482;-46.500;2023-02-02T09:07:52;86.47;;;48.38;;
21014;SDS011;19207;-23.482;-46.500;2023-02-02T09:10:39;68.75;;;34.42;;
21014;SDS011;19207;-23.482;-46.500;2023-02-02T09:13:25;65.07;;;37.20;;
21014;SDS011;19207;-23.482;-46.500;2023-02-02T09:16:13;65.22;;;42.92;;
21014;SDS011;19207;-23.482;-46.500;2023-02-02T09:19:00;65.87;;;38.95;;
21014;SDS011;19207;-23.482;-46.500;2023-02-02T09:21:49;58.30;;;30.52;;
21014;SDS011;19207;-23.482;-46.500;2023-02-02T09:24:36;47.17;;;25.52;;
21014;SDS011;19207;-23.482;-46.500;2023-02-02T09:27:22;48.80;;;23.45;;
21014;SDS011;19207;-23.482;-46.500;2023-02-02T09:30:09;52.80;;;22.70;;
21014;SDS011;19207;-23.482;-46.500;2023-02-02T09:32:55;38.22;;;18.08;;
21014;SDS011;19207;-23.482;-46.500;2023-02-02T09:35:42;39.97;;;16.70;;
21014;SDS011;19207;-23.482;-46.500;2023-02-02T09:38:31;46.90;;;19.35;;
21014;SDS011;19207;-23.482;-46.500;2023-02-02T09:47:03;27.15;;;12.30;;
21014;SDS011;19207;-23.482;-46.500;2023-02-02T09:49:54;39.75;;;14.38;;
21014;SDS011;19207;-23.482;-46.500;2023-02-02T09:53:01;46.45;;;17.17;;
21014;SDS011;19207;-23.482;-46.500;2023-02-02T09:55:52;43.15;;;16.73;;
21014;SDS011;19207;-23.482;-46.500;2023-02-02T09:58:44;45.45;;;16.17;;
21014;SDS011;19207;-23.482;-46.500;2023-02-02T10:01:35;34.60;;;15.55;;
21014;SDS011;19207;-23.482;-46.500;2023-02-02T10:04:42;23.55;;;11.00;;
21014;SDS011;19207;-23.482;-46.500;2023-02-02T10:07:33;24.35;;;11.15;;
21014;SDS011;19207;-23.482;-46.500;2023-02-02T10:10:31;27.73;;;11.35;;
21014;SDS011;19207;-23.482;-46.500;2023-02-02T10:13:20;21.37;;;10.90;;
21014;SDS011;19207;-23.482;-46.500;2023-02-02T10:16:15;28.48;;;15.02;;
21014;SDS011;19207;-23.482;-46.500;2023-02-02T10:19:03;26.42;;;13.93;;
21014;SDS011;19207;-23.482;-46.500;2023-02-02T10:21:53;18.00;;;10.13;;
21014;SDS011;19207;-23.482;-46.500;2023-02-02T10:24:40;12.65;;;6.12;;
21014;SDS011;19207;-23.482;-46.500;2023-02-02T10:27:33;12.60;;;5.40;;
21014;SDS011;19207;-23.482;-46.500;2023-02-02T10:30:28;10.38;;;5.18;;
21014;SDS011;19207;-23.482;-46.500;2023-02-02T10:33:22;8.82;;;5.22;;
21014;SDS011;19207;-23.482;-46.500;2023-02-02T10:47:31;5.55;;;4.20;;
21014;SDS011;19207;-23.482;-46.500;2023-02-02T10:50:18;9.13;;;4.22;;
21014;SDS011;19207;-23.482;-46.500;2023-02-02T10:53:05;12.25;;;4.65;;
21014;SDS011;19207;-23.482;-46.500;2023-02-02T10:56:01;8.80;;;5.03;;
21014;SDS011;19207;-23.482;-46.500;2023-02-02T10:58:58;10.02;;;4.10;;
21014;SDS011;19207;-23.482;-46.500;2023-02-02T11:01:46;13.65;;;6.97;;
21014;SDS011;19207;-23.482;-46.500;2023-02-02T11:04:34;9.52;;;4.90;;
21014;SDS011;19207;-23.482;-46.500;2023-02-02T11:07:39;11.55;;;5.50;;
21014;SDS011;19207;-23.482;-46.500;2023-02-02T11:10:26;30.23;;;15.88;;
21014;SDS011;19207;-23.482;-46.500;2023-02-02T11:13:15;32.92;;;15.43;;
21014;SDS011;19207;-23.482;-46.500;2023-02-02T11:18:58;28.48;;;14.60;;
21014;SDS011;19207;-23.482;-46.500;2023-02-02T11:21:44;26.98;;;11.57;;
21014;SDS011;19207;-23.482;-46.500;2023-02-02T11:24:46;30.90;;;13.40;;
21014;SDS011;19207;-23.482;-46.500;2023-02-02T11:27:39;21.58;;;12.05;;
21014;SDS011;19207;-23.482;-46.500;2023-02-02T11:30:29;23.33;;;10.75;;
21014;SDS011;19207;-23.482;-46.500;2023-02-02T11:33:30;20.95;;;11.88;;
21014;SDS011;19207;-23.482;-46.500;2023-02-02T11:36:20;24.40;;;12.30;;
21014;SDS011;19207;-23.482;-46.500;2023-02-02T11:39:19;23.10;;;11.38;;
21014;SDS011;19207;-23.482;-46.500;2023-02-02T11:42:06;25.92;;;11.48;;
21014;SDS011;19207;-23.482;-46.500;2023-02-02T11:44:55;25.92;;;11.70;;
21014;SDS011;19207;-23.482;-46.500;2023-02-02T11:47:43;28.05;;;12.52;;
21014;SDS011;19207;-23.482;-46.500;2023-02-02T11:50:29;24.50;;;11.02;;
21014;SDS011;19207;-23.482;-46.500;2023-02-02T11:56:17;27.98;;;11.55;;
21014;SDS011;19207;-23.482;-46.500;2023-02-02T11:59:04;21.65;;;11.68;;
21014;SDS011;19207;-23.482;-46.500;2023-02-02T12:02:06;22.77;;;11.85;;
21014;SDS011;19207;-23.482;-46.500;2023-02-02T12:08:03;26.15;;;13.00;;
21014;SDS011;19207;-23.482;-46.500;2023-02-02T12:11:00;24.37;;;9.85;;
21014;SDS011;19207;-23.482;-46.500;2023-02-02T12:19:56;18.55;;;7.97;;
21014;SDS011;19207;-23.482;-46.500;2023-02-02T12:22:55;17.65;;;6.82;;
21014;SDS011;19207;-23.482;-46.500;2023-02-02T12:31:57;6.53;;;4.18;;
21014;SDS011;19207;-23.482;-46.500;2023-02-02T12:37:55;5.53;;;3.50;;
21014;SDS011;19207;-23.482;-46.500;2023-02-02T12:43:57;4.82;;;3.00;;
21014;SDS011;19207;-23.482;-46.500;2023-02-02T12:52:55;5.53;;;3.58;;
21014;SDS011;19207;-23.482;-46.500;2023-02-02T12:58:36;6.07;;;3.42;;
21014;SDS011;19207;-23.482;-46.500;2023-02-02T13:01:34;3.47;;;3.15;;
21014;SDS011;19207;-23.482;-46.500;2023-02-02T13:13:22;4.53;;;3.53;;
21014;SDS011;19207;-23.482;-46.500;2023-02-02T13:16:11;4.65;;;3.30;;
21014;SDS011;19207;-23.482;-46.500;2023-02-02T13:19:05;7.82;;;3.50;;
21014;SDS011;19207;-23.482;-46.500;2023-02-02T13:21:53;3.50;;;3.20;;
21014;SDS011;19207;-23.482;-46.500;2023-02-02T13:24:42;3.65;;;3.33;;
21014;SDS011;19207;-23.482;-46.500;2023-02-02T13:27:30;4.37;;;3.87;;
21014;SDS011;19207;-23.482;-46.500;2023-02-02T13:33:26;4.55;;;3.95;;
21014;SDS011;19207;-23.482;-46.500;2023-02-02T13:36:19;4.07;;;3.60;;
21014;SDS011;19207;-23.482;-46.500;2023-02-02T13:39:28;5.37;;;4.12;;
21014;SDS011;19207;-23.482;-46.500;2023-02-02T13:42:42;4.20;;;3.80;;
21014;SDS011;19207;-23.482;-46.500;2023-02-02T14:06:23;5.72;;;4.28;;
21014;SDS011;19207;-23.482;-46.500;2023-02-02T14:09:16;5.07;;;3.70;;
21014;SDS011;19207;-23.482;-46.500;2023-02-02T14:12:04;4.85;;;3.83;;
21014;SDS011;19207;-23.482;-46.500;2023-02-02T14:14:51;5.40;;;3.80;;
21014;SDS011;19207;-23.482;-46.500;2023-02-02T14:26:47;5.50;;;3.50;;
21014;SDS011;19207;-23.482;-46.500;2023-02-02T14:32:31;5.57;;;3.50;;
21014;SDS011;19207;-23.482;-46.500;2023-02-02T14:44:33;8.75;;;3.70;;
21014;SDS011;19207;-23.482;-46.500;2023-02-02T14:47:41;4.12;;;3.72;;
21014;SDS011;19207;-23.482;-46.500;2023-02-02T14:53:26;3.30;;;2.90;;
21014;SDS011;19207;-23.482;-46.500;2023-02-02T14:56:14;3.20;;;2.90;;
21014;SDS011;19207;-23.482;-46.500;2023-02-02T14:59:01;3.08;;;2.80;;
21014;SDS011;19207;-23.482;-46.500;2023-02-02T15:04:46;5.82;;;3.72;;
21014;SDS011;19207;-23.482;-46.500;2023-02-02T15:13:26;5.78;;;3.20;;
21014;SDS011;19207;-23.482;-46.500;2023-02-02T15:16:18;3.28;;;3.03;;
21014;SDS011;19207;-23.482;-46.500;2023-02-02T15:19:19;3.87;;;3.22;;
21014;SDS011;19207;-23.482;-46.500;2023-02-02T15:31:22;6.03;;;3.25;;
21014;SDS011;19207;-23.482;-46.500;2023-02-02T15:34:17;3.90;;;3.50;;
21014;SDS011;19207;-23.482;-46.500;2023-02-02T15:37:06;5.18;;;3.22;;
21014;SDS011;19207;-23.482;-46.500;2023-02-02T15:39:54;5.62;;;3.30;;
21014;SDS011;19207;-23.482;-46.500;2023-02-02T15:42:44;6.22;;;3.42;;
21014;SDS011;19207;-23.482;-46.500;2023-02-02T15:45:43;3.53;;;3.22;;
21014;SDS011;19207;-23.482;-46.500;2023-02-02T15:48:32;3.70;;;3.10;;
21014;SDS011;19207;-23.482;-46.500;2023-02-02T15:51:20;3.47;;;3.00;;
21014;SDS011;19207;-23.482;-46.500;2023-02-02T15:54:19;9.95;;;3.35;;
21014;SDS011;19207;-23.482;-46.500;2023-02-02T16:00:28;6.28;;;3.10;;
21014;SDS011;19207;-23.482;-46.500;2023-02-02T16:03:17;5.03;;;3.20;;
21014;SDS011;19207;-23.482;-46.500;2023-02-02T16:06:05;4.50;;;3.35;;
21014;SDS011;19207;-23.482;-46.500;2023-02-02T16:08:51;5.20;;;4.80;;
21014;SDS011;19207;-23.482;-46.500;2023-02-02T16:11:41;4.05;;;3.60;;
21014;SDS011;19207;-23.482;-46.500;2023-02-02T16:14:29;6.18;;;3.15;;
21014;SDS011;19207;-23.482;-46.500;2023-02-02T16:17:20;4.55;;;3.40;;
21014;SDS011;19207;-23.482;-46.500;2023-02-02T16:20:12;5.95;;;3.50;;
21014;SDS011;19207;-23.482;-46.500;2023-02-02T16:23:01;4.50;;;3.37;;
21014;SDS011;19207;-23.482;-46.500;2023-02-02T16:25:50;4.00;;;3.60;;
21014;SDS011;19207;-23.482;-46.500;2023-02-02T16:28:38;9.05;;;5.65;;
21014;SDS011;19207;-23.482;-46.500;2023-02-02T16:31:25;3.30;;;3.00;;
21014;SDS011;19207;-23.482;-46.500;2023-02-02T16:34:16;4.65;;;3.30;;
21014;SDS011;19207;-23.482;-46.500;2023-02-02T16:37:24;8.88;;;3.42;;
21014;SDS011;19207;-23.482;-46.500;2023-02-02T16:40:16;5.85;;;4.75;;
21014;SDS011;19207;-23.482;-46.500;2023-02-02T16:45:52;4.05;;;3.42;;
21014;SDS011;19207;-23.482;-46.500;2023-02-02T16:48:41;3.85;;;3.50;;
21014;SDS011;19207;-23.482;-46.500;2023-02-02T16:51:30;5.15;;;3.60;;
21014;SDS011;19207;-23.482;-46.500;2023-02-02T16:54:18;3.90;;;3.53;;
21014;SDS011;19207;-23.482;-46.500;2023-02-02T16:57:05;4.00;;;3.58;;
21014;SDS011;19207;-23.482;-46.500;2023-02-02T16:59:53;4.65;;;3.40;;
21014;SDS011;19207;-23.482;-46.500;2023-02-02T17:02:40;10.63;;;9.77;;
21014;SDS011;19207;-23.482;-46.500;2023-02-02T17:05:34;4.10;;;3.60;;
21014;SDS011;19207;-23.482;-46.500;2023-02-02T17:08:27;8.50;;;7.65;;
21014;SDS011;19207;-23.482;-46.500;2023-02-02T17:11:23;6.20;;;3.53;;
21014;SDS011;19207;-23.482;-46.500;2023-02-02T17:14:19;4.15;;;3.72;;
21014;SDS011;19207;-23.482;-46.500;2023-02-02T17:17:11;5.47;;;3.50;;
21014;SDS011;19207;-23.482;-46.500;2023-02-02T17:19:57;5.18;;;3.60;;
21014;SDS011;19207;-23.482;-46.500;2023-02-02T17:22:45;5.30;;;3.72;;
21014;SDS011;19207;-23.482;-46.500;2023-02-02T17:25:34;4.18;;;3.78;;
21014;SDS011;19207;-23.482;-46.500;2023-02-02T17:28:22;4.30;;;3.90;;
21014;SDS011;19207;-23.482;-46.500;2023-02-02T17:31:10;7.43;;;4.00;;
21014;SDS011;19207;-23.482;-46.500;2023-02-02T17:33:58;4.40;;;3.60;;
21014;SDS011;19207;-23.482;-46.500;2023-02-02T17:36:44;4.85;;;3.55;;
21014;SDS011;19207;-23.482;-46.500;2023-02-02T17:39:32;3.75;;;3.40;;
21014;SDS011;19207;-23.482;-46.500;2023-02-02T17:42:25;6.07;;;3.20;;
21014;SDS011;19207;-23.482;-46.500;2023-02-02T17:45:16;6.30;;;3.50;;
21014;SDS011;19207;-23.482;-46.500;2023-02-02T17:48:04;3.42;;;3.12;;
21014;SDS011;19207;-23.482;-46.500;2023-02-02T17:50:51;10.20;;;3.10;;
21014;SDS011;19207;-23.482;-46.500;2023-02-02T17:53:38;3.30;;;3.00;;
21014;SDS011;19207;-23.482;-46.500;2023-02-02T17:56:25;7.15;;;3.62;;
21014;SDS011;19207;-23.482;-46.500;2023-02-02T17:59:12;8.40;;;3.83;;
21014;SDS011;19207;-23.482;-46.500;2023-02-02T18:01:58;6.40;;;3.67;;
21014;SDS011;19207;-23.482;-46.500;2023-02-02T18:04:46;4.60;;;3.87;;
21014;SDS011;19207;-23.482;-46.500;2023-02-02T18:07:33;5.80;;;3.62;;
21014;SDS011;19207;-23.482;-46.500;2023-02-02T18:10:21;6.62;;;3.75;;
21014;SDS011;19207;-23.482;-46.500;2023-02-02T18:13:12;7.80;;;3.75;;
21014;SDS011;19207;-23.482;-46.500;2023-02-02T18:16:01;4.82;;;3.90;;
21014;SDS011;19207;-23.482;-46.500;2023-02-02T18:18:48;4.78;;;3.78;;
21014;SDS011;19207;-23.482;-46.500;2023-02-02T18:21:35;5.70;;;4.07;;
21014;SDS011;19207;-23.482;-46.500;2023-02-02T18:24:22;7.07;;;3.95;;
21014;SDS011;19207;-23.482;-46.500;2023-02-02T18:27:09;4.90;;;4.07;;
21014;SDS011;19207;-23.482;-46.500;2023-02-02T18:29:56;4.62;;;3.70;;
21014;SDS011;19207;-23.482;-46.500;2023-02-02T18:32:45;5.32;;;3.70;;
21014;SDS011;19207;-23.482;-46.500;2023-02-02T18:35:34;9.18;;;4.00;;